sensor_id;sensor_type;location;lat;lon;timestamp;temperature;humidity
32428;DHT22;18882;50.952;4.366;2023-04-01T00:00:54;10.10;99.90
32428;DHT22;18882;50.952;4.366;2023-04-01T00:03:21;10.10;99.90
32428;DHT22;18882;50.952;4.366;2023-04-01T00:05:47;10.20;99.90
32428;DHT22;18882;50.952;4.366;2023-04-01T00:08:13;10.20;99.90
32428;DHT22;18882;50.952;4.366;2023-04-01T00:10:39;10.20;99.90
32428;DHT22;18882;50.952;4.366;2023-04-01T00:13:05;10.20;99.90
32428;DHT22;18882;50.952;4.366;2023-04-01T00:15:30;10.20;99.90
32428;DHT22;18882;50.952;4.366;2023-04-01T00:17:56;10.20;99.90
32428;DHT22;18882;50.952;4.366;2023-04-01T00:20:22;10.10;99.90
32428;DHT22;18882;50.952;4.366;2023-04-01T00:22:48;10.20;99.90
32428;DHT22;18882;50.952;4.366;2023-04-01T00:25:14;10.20;99.90
32428;DHT22;18882;50.952;4.366;2023-04-01T00:27:40;10.20;99.90
32428;DHT22;18882;50.952;4.366;2023-04-01T00:30:07;10.20;99.90
32428;DHT22;18882;50.952;4.366;2023-04-01T00:32:33;10.20;99.90
32428;DHT22;18882;50.952;4.366;2023-04-01T00:34:59;10.20;99.90
32428;DHT22;18882;50.952;4.366;2023-04-01T00:37:26;10.30;99.90
32428;DHT22;18882;50.952;4.366;2023-04-01T00:39:52;10.30;99.90
32428;DHT22;18882;50.952;4.366;2023-04-01T00:42:18;10.40;99.90
32428;DHT22;18882;50.952;4.366;2023-04-01T00:44:50;10.40;99.90
32428;DHT22;18882;50.952;4.366;2023-04-01T00:47:17;10.40;99.90
32428;DHT22;18882;50.952;4.366;2023-04-01T00:49:46;10.40;99.90
32428;DHT22;18882;50.952;4.366;2023-04-01T00:52:17;10.30;99.90
32428;DHT22;18882;50.952;4.366;2023-04-01T00:54:46;10.30;99.90
32428;DHT22;18882;50.952;4.366;2023-04-01T00:57:19;10.30;99.90
32428;DHT22;18882;50.952;4.366;2023-04-01T00:59:48;10.30;99.90
32428;DHT22;18882;50.952;4.366;2023-04-01T01:02:15;10.30;99.90
32428;DHT22;18882;50.952;4.366;2023-04-01T01:04:41;10.30;99.90
32428;DHT22;18882;50.952;4.366;2023-04-01T01:10:07;10.40;99.90
32428;DHT22;18882;50.952;4.366;2023-04-01T01:12:40;10.40;99.90
32428;DHT22;18882;50.952;4.366;2023-04-01T01:18:06;10.40;99.90
32428;DHT22;18882;50.952;4.366;2023-04-01T01:26:16;10.30;99.90
32428;DHT22;18882;50.952;4.366;2023-04-01T01:31:37;10.40;99.90
32428;DHT22;18882;50.952;4.366;2023-04-01T01:37:03;10.40;99.90
32428;DHT22;18882;50.952;4.366;2023-04-01T01:39:34;10.40;99.90
32428;DHT22;18882;50.952;4.366;2023-04-01T01:42:05;10.30;99.90
32428;DHT22;18882;50.952;4.366;2023-04-01T01:44:33;10.30;99.90
32428;DHT22;18882;50.952;4.366;2023-04-01T01:47:00;10.30;99.90
32428;DHT22;18882;50.952;4.366;2023-04-01T01:49:27;10.30;99.90
32428;DHT22;18882;50.952;4.366;2023-04-01T01:51:56;10.30;99.90
32428;DHT22;18882;50.952;4.366;2023-04-01T01:54:21;10.20;99.90
32428;DHT22;18882;50.952;4.366;2023-04-01T01:56:51;10.30;99.90
32428;DHT22;18882;50.952;4.366;2023-04-01T01:59:21;10.30;99.90
32428;DHT22;18882;50.952;4.366;2023-04-01T02:01:50;10.40;99.90
32428;DHT22;18882;50.952;4.366;2023-04-01T02:04:18;10.30;99.90
32428;DHT22;18882;50.952;4.366;2023-04-01T02:06:55;10.30;99.90
32428;DHT22;18882;50.952;4.366;2023-04-01T02:09:22;10.30;99.90
32428;DHT22;18882;50.952;4.366;2023-04-01T02:11:53;10.30;99.90
32428;DHT22;18882;50.952;4.366;2023-04-01T02:14:28;10.20;99.90
32428;DHT22;18882;50.952;4.366;2023-04-01T02:17:19;10.30;99.90
32428;DHT22;18882;50.952;4.366;2023-04-01T02:19:55;10.30;99.90
32428;DHT22;18882;50.952;4.366;2023-04-01T02:22:33;10.20;99.90
32428;DHT22;18882;50.952;4.366;2023-04-01T02:25:03;10.30;99.90
32428;DHT22;18882;50.952;4.366;2023-04-01T02:27:30;10.30;99.90
32428;DHT22;18882;50.952;4.366;2023-04-01T02:29:57;10.20;99.90
32428;DHT22;18882;50.952;4.366;2023-04-01T02:32:23;10.30;99.90
32428;DHT22;18882;50.952;4.366;2023-04-01T02:34:50;10.20;99.90
32428;DHT22;18882;50.952;4.366;2023-04-01T02:37:17;10.20;99.90
32428;DHT22;18882;50.952;4.366;2023-04-01T02:39:42;10.20;99.90
32428;DHT22;18882;50.952;4.366;2023-04-01T02:42:08;10.30;99.90
32428;DHT22;18882;50.952;4.366;2023-04-01T02:44:34;10.30;99.90
32428;DHT22;18882;50.952;4.366;2023-04-01T02:47:00;10.30;99.90
32428;DHT22;18882;50.952;4.366;2023-04-01T02:49:26;10.30;99.90
32428;DHT22;18882;50.952;4.366;2023-04-01T02:51:52;10.20;99.90
32428;DHT22;18882;50.952;4.366;2023-04-01T02:54:18;10.20;99.90
32428;DHT22;18882;50.952;4.366;2023-04-01T02:56:44;10.20;99.90
32428;DHT22;18882;50.952;4.366;2023-04-01T02:59:11;10.30;99.90
32428;DHT22;18882;50.952;4.366;2023-04-01T03:01:36;10.20;99.90
32428;DHT22;18882;50.952;4.366;2023-04-01T03:04:02;10.20;99.90
32428;DHT22;18882;50.952;4.366;2023-04-01T03:06:28;10.20;99.90
32428;DHT22;18882;50.952;4.366;2023-04-01T03:08:54;10.20;99.90
32428;DHT22;18882;50.952;4.366;2023-04-01T03:11:19;10.20;99.90
32428;DHT22;18882;50.952;4.366;2023-04-01T03:13:46;10.20;99.90
32428;DHT22;18882;50.952;4.366;2023-04-01T03:16:13;10.20;99.90
32428;DHT22;18882;50.952;4.366;2023-04-01T03:18:39;10.10;99.90
32428;DHT22;18882;50.952;4.366;2023-04-01T03:21:19;10.20;99.90
32428;DHT22;18882;50.952;4.366;2023-04-01T03:23:45;10.10;99.90
32428;DHT22;18882;50.952;4.366;2023-04-01T03:26:11;10.10;99.90
32428;DHT22;18882;50.952;4.366;2023-04-01T03:28:37;10.20;99.90
32428;DHT22;18882;50.952;4.366;2023-04-01T03:31:02;10.20;99.90
32428;DHT22;18882;50.952;4.366;2023-04-01T03:33:28;10.20;99.90
32428;DHT22;18882;50.952;4.366;2023-04-01T03:35:54;10.20;99.90
32428;DHT22;18882;50.952;4.366;2023-04-01T03:38:20;10.20;99.90
32428;DHT22;18882;50.952;4.366;2023-04-01T03:40:45;10.20;99.90
32428;DHT22;18882;50.952;4.366;2023-04-01T03:43:11;10.20;99.90
32428;DHT22;18882;50.952;4.366;2023-04-01T03:45:48;10.30;99.90
32428;DHT22;18882;50.952;4.366;2023-04-01T03:48:14;10.20;99.90
32428;DHT22;18882;50.952;4.366;2023-04-01T03:50:40;10.20;99.90
32428;DHT22;18882;50.952;4.366;2023-04-01T03:53:06;10.20;99.90
32428;DHT22;18882;50.952;4.366;2023-04-01T03:55:32;10.20;99.90
32428;DHT22;18882;50.952;4.366;2023-04-01T03:57:59;10.20;99.90
32428;DHT22;18882;50.952;4.366;2023-04-01T04:00:25;10.20;99.90
32428;DHT22;18882;50.952;4.366;2023-04-01T04:02:50;10.20;99.90
32428;DHT22;18882;50.952;4.366;2023-04-01T04:05:16;10.30;99.90
32428;DHT22;18882;50.952;4.366;2023-04-01T04:07:41;10.30;99.90
32428;DHT22;18882;50.952;4.366;2023-04-01T04:10:07;10.30;99.90
32428;DHT22;18882;50.952;4.366;2023-04-01T04:12:33;10.30;99.90
32428;DHT22;18882;50.952;4.366;2023-04-01T04:14:59;10.20;99.90
32428;DHT22;18882;50.952;4.366;2023-04-01T04:17:25;10.20;99.90
32428;DHT22;18882;50.952;4.366;2023-04-01T04:19:51;10.30;99.90
32428;DHT22;18882;50.952;4.366;2023-04-01T04:22:16;10.30;99.90
32428;DHT22;18882;50.952;4.366;2023-04-01T04:24:42;10.20;99.90
32428;DHT22;18882;50.952;4.366;2023-04-01T04:27:08;10.20;99.90
32428;DHT22;18882;50.952;4.366;2023-04-01T04:29:34;10.20;99.90
32428;DHT22;18882;50.952;4.366;2023-04-01T04:31:59;10.10;99.90
32428;DHT22;18882;50.952;4.366;2023-04-01T04:34:25;10.10;99.90
32428;DHT22;18882;50.952;4.366;2023-04-01T04:36:51;10.10;99.90
32428;DHT22;18882;50.952;4.366;2023-04-01T04:39:16;10.10;99.90
32428;DHT22;18882;50.952;4.366;2023-04-01T04:41:42;10.20;99.90
32428;DHT22;18882;50.952;4.366;2023-04-01T04:44:08;10.20;99.90
32428;DHT22;18882;50.952;4.366;2023-04-01T04:46:33;10.20;99.90
32428;DHT22;18882;50.952;4.366;2023-04-01T04:48:59;10.20;99.90
32428;DHT22;18882;50.952;4.366;2023-04-01T04:51:25;10.10;99.90
32428;DHT22;18882;50.952;4.366;2023-04-01T04:53:51;10.10;99.90
32428;DHT22;18882;50.952;4.366;2023-04-01T04:56:19;10.10;99.90
32428;DHT22;18882;50.952;4.366;2023-04-01T04:58:45;10.10;99.90
32428;DHT22;18882;50.952;4.366;2023-04-01T05:01:14;10.10;99.90
32428;DHT22;18882;50.952;4.366;2023-04-01T05:03:41;10.10;99.90
32428;DHT22;18882;50.952;4.366;2023-04-01T05:06:07;10.10;99.90
32428;DHT22;18882;50.952;4.366;2023-04-01T05:08:34;10.10;99.90
32428;DHT22;18882;50.952;4.366;2023-04-01T05:11:01;10.10;99.90
32428;DHT22;18882;50.952;4.366;2023-04-01T05:13:27;10.20;99.90
32428;DHT22;18882;50.952;4.366;2023-04-01T05:15:52;10.10;99.90
32428;DHT22;18882;50.952;4.366;2023-04-01T05:18:18;10.10;99.90
32428;DHT22;18882;50.952;4.366;2023-04-01T05:20:52;10.20;99.90
32428;DHT22;18882;50.952;4.366;2023-04-01T05:23:19;10.20;99.90
32428;DHT22;18882;50.952;4.366;2023-04-01T05:25:49;10.20;99.90
32428;DHT22;18882;50.952;4.366;2023-04-01T05:28:16;10.20;99.90
32428;DHT22;18882;50.952;4.366;2023-04-01T05:30:43;10.20;99.90
32428;DHT22;18882;50.952;4.366;2023-04-01T05:33:11;10.20;99.90
32428;DHT22;18882;50.952;4.366;2023-04-01T05:35:37;10.20;99.90
32428;DHT22;18882;50.952;4.366;2023-04-01T05:38:03;10.20;99.90
32428;DHT22;18882;50.952;4.366;2023-04-01T05:40:29;10.20;99.90
32428;DHT22;18882;50.952;4.366;2023-04-01T05:42:55;10.20;99.90
32428;DHT22;18882;50.952;4.366;2023-04-01T05:45:21;10.30;99.90
32428;DHT22;18882;50.952;4.366;2023-04-01T05:47:46;10.20;99.90
32428;DHT22;18882;50.952;4.366;2023-04-01T05:50:12;10.20;99.90
32428;DHT22;18882;50.952;4.366;2023-04-01T05:52:38;10.20;99.90
32428;DHT22;18882;50.952;4.366;2023-04-01T05:55:04;10.20;99.90
32428;DHT22;18882;50.952;4.366;2023-04-01T05:57:30;10.20;99.90
32428;DHT22;18882;50.952;4.366;2023-04-01T05:59:56;10.20;99.90
32428;DHT22;18882;50.952;4.366;2023-04-01T06:02:22;10.20;99.90
32428;DHT22;18882;50.952;4.366;2023-04-01T06:04:48;10.20;99.90
32428;DHT22;18882;50.952;4.366;2023-04-01T06:07:16;10.20;99.90
32428;DHT22;18882;50.952;4.366;2023-04-01T06:09:43;10.20;99.90
32428;DHT22;18882;50.952;4.366;2023-04-01T06:22:42;10.20;99.90
32428;DHT22;18882;50.952;4.366;2023-04-01T06:42:48;10.20;99.90
32428;DHT22;18882;50.952;4.366;2023-04-01T06:45:31;10.00;99.90
32428;DHT22;18882;50.952;4.366;2023-04-01T06:48:10;10.20;99.90
32428;DHT22;18882;50.952;4.366;2023-04-01T06:50:52;10.20;99.90
32428;DHT22;18882;50.952;4.366;2023-04-01T06:53:35;10.10;99.90
32428;DHT22;18882;50.952;4.366;2023-04-01T06:56:18;10.10;99.90
32428;DHT22;18882;50.952;4.366;2023-04-01T07:01:22;10.20;99.90
32428;DHT22;18882;50.952;4.366;2023-04-01T07:03:58;10.20;99.90
32428;DHT22;18882;50.952;4.366;2023-04-01T07:09:35;10.10;99.90
32428;DHT22;18882;50.952;4.366;2023-04-01T07:12:10;10.20;99.90
32428;DHT22;18882;50.952;4.366;2023-04-01T07:14:40;10.20;99.90
32428;DHT22;18882;50.952;4.366;2023-04-01T07:17:28;10.20;99.90
32428;DHT22;18882;50.952;4.366;2023-04-01T07:20:11;10.20;99.90
32428;DHT22;18882;50.952;4.366;2023-04-01T07:22:44;10.30;99.90
32428;DHT22;18882;50.952;4.366;2023-04-01T07:25:17;10.40;99.90
32428;DHT22;18882;50.952;4.366;2023-04-01T07:27:44;10.40;99.90
32428;DHT22;18882;50.952;4.366;2023-04-01T07:30:19;10.40;99.90
32428;DHT22;18882;50.952;4.366;2023-04-01T07:35:30;10.50;99.90
32428;DHT22;18882;50.952;4.366;2023-04-01T08:00:27;10.90;99.90
32428;DHT22;18882;50.952;4.366;2023-04-01T08:03:32;10.80;99.90
32428;DHT22;18882;50.952;4.366;2023-04-01T08:06:32;10.90;99.90
32428;DHT22;18882;50.952;4.366;2023-04-01T08:11:37;11.00;99.90
32428;DHT22;18882;50.952;4.366;2023-04-01T08:14:20;11.00;99.90
32428;DHT22;18882;50.952;4.366;2023-04-01T08:19:50;11.00;99.90
32428;DHT22;18882;50.952;4.366;2023-04-01T08:22:30;11.10;99.90
32428;DHT22;18882;50.952;4.366;2023-04-01T08:25:01;11.20;99.90
32428;DHT22;18882;50.952;4.366;2023-04-01T08:27:39;11.20;99.90
32428;DHT22;18882;50.952;4.366;2023-04-01T08:30:25;11.10;99.90
32428;DHT22;18882;50.952;4.366;2023-04-01T08:33:01;11.10;99.90
32428;DHT22;18882;50.952;4.366;2023-04-01T08:35:38;11.00;99.90
32428;DHT22;18882;50.952;4.366;2023-04-01T08:38:23;10.90;99.90
32428;DHT22;18882;50.952;4.366;2023-04-01T09:00:56;11.40;99.90
32428;DHT22;18882;50.952;4.366;2023-04-01T09:20:39;11.70;99.90
32428;DHT22;18882;50.952;4.366;2023-04-01T09:26:34;11.70;99.90
32428;DHT22;18882;50.952;4.366;2023-04-01T09:35:46;11.60;99.90
32428;DHT22;18882;50.952;4.366;2023-04-01T09:52:52;11.70;99.90
32428;DHT22;18882;50.952;4.366;2023-04-01T09:58:38;11.80;99.90
32428;DHT22;18882;50.952;4.366;2023-04-01T10:01:19;11.70;99.90
32428;DHT22;18882;50.952;4.366;2023-04-01T10:13:08;11.90;99.90
32428;DHT22;18882;50.952;4.366;2023-04-01T10:18:49;12.00;99.90
32428;DHT22;18882;50.952;4.366;2023-04-01T10:21:45;12.30;99.90
32428;DHT22;18882;50.952;4.366;2023-04-01T10:33:38;12.30;99.90
32428;DHT22;18882;50.952;4.366;2023-04-01T10:36:49;12.20;99.90
32428;DHT22;18882;50.952;4.366;2023-04-01T10:48:14;12.30;99.90
32428;DHT22;18882;50.952;4.366;2023-04-01T11:16:07;12.30;99.90
32428;DHT22;18882;50.952;4.366;2023-04-01T11:25:08;12.20;99.90
32428;DHT22;18882;50.952;4.366;2023-04-01T11:41:52;12.10;99.90
32428;DHT22;18882;50.952;4.366;2023-04-01T11:44:24;12.10;99.90
32428;DHT22;18882;50.952;4.366;2023-04-01T11:47:24;12.20;99.90
32428;DHT22;18882;50.952;4.366;2023-04-01T11:55:54;12.50;99.90
32428;DHT22;18882;50.952;4.366;2023-04-01T12:01:44;12.70;99.90
32428;DHT22;18882;50.952;4.366;2023-04-01T12:04:36;12.60;99.90
32428;DHT22;18882;50.952;4.366;2023-04-01T12:07:25;12.40;99.90
32428;DHT22;18882;50.952;4.366;2023-04-01T12:15:14;12.60;99.90
32428;DHT22;18882;50.952;4.366;2023-04-01T12:23:42;12.70;99.90
32428;DHT22;18882;50.952;4.366;2023-04-01T12:32:41;12.50;99.90
32428;DHT22;18882;50.952;4.366;2023-04-01T12:54:13;12.20;99.90
32428;DHT22;18882;50.952;4.366;2023-04-01T13:18:05;12.10;99.90
32428;DHT22;18882;50.952;4.366;2023-04-01T13:24:05;12.00;99.90
32428;DHT22;18882;50.952;4.366;2023-04-01T13:26:53;11.90;99.90
32428;DHT22;18882;50.952;4.366;2023-04-01T13:45:23;12.30;99.90
32428;DHT22;18882;50.952;4.366;2023-04-01T13:48:02;12.30;99.90
32428;DHT22;18882;50.952;4.366;2023-04-01T13:56:33;12.20;99.90
32428;DHT22;18882;50.952;4.366;2023-04-01T14:07:50;12.20;99.90
32428;DHT22;18882;50.952;4.366;2023-04-01T14:10:43;12.20;99.90
32428;DHT22;18882;50.952;4.366;2023-04-01T14:13:30;12.20;99.90
32428;DHT22;18882;50.952;4.366;2023-04-01T14:16:04;12.10;99.90
32428;DHT22;18882;50.952;4.366;2023-04-01T14:18:52;12.20;99.90
32428;DHT22;18882;50.952;4.366;2023-04-01T14:21:30;12.40;99.90
32428;DHT22;18882;50.952;4.366;2023-04-01T14:27:14;12.60;99.90
32428;DHT22;18882;50.952;4.366;2023-04-01T14:29:34;12.60;99.90
32428;DHT22;18882;50.952;4.366;2023-04-01T14:34:43;12.80;99.90
32428;DHT22;18882;50.952;4.366;2023-04-01T14:40:20;12.90;99.90
32428;DHT22;18882;50.952;4.366;2023-04-01T14:43:37;12.80;99.90
32428;DHT22;18882;50.952;4.366;2023-04-01T14:52:24;12.40;99.90
32428;DHT22;18882;50.952;4.366;2023-04-01T14:54:52;12.50;99.90
32428;DHT22;18882;50.952;4.366;2023-04-01T14:57:29;12.60;99.90
32428;DHT22;18882;50.952;4.366;2023-04-01T15:02:35;12.60;99.90
32428;DHT22;18882;50.952;4.366;2023-04-01T15:05:16;12.70;99.90
32428;DHT22;18882;50.952;4.366;2023-04-01T15:13:53;12.50;99.90
32428;DHT22;18882;50.952;4.366;2023-04-01T15:16:34;12.50;99.90
32428;DHT22;18882;50.952;4.366;2023-04-01T15:19:36;12.40;99.90
32428;DHT22;18882;50.952;4.366;2023-04-01T15:38:51;11.80;99.90
32428;DHT22;18882;50.952;4.366;2023-04-01T15:43:53;11.50;99.90
32428;DHT22;18882;50.952;4.366;2023-04-01T15:46:46;11.40;99.90
32428;DHT22;18882;50.952;4.366;2023-04-01T15:54:38;11.40;99.90
32428;DHT22;18882;50.952;4.366;2023-04-01T15:57:20;11.40;99.90
32428;DHT22;18882;50.952;4.366;2023-04-01T16:00:25;11.30;99.90
32428;DHT22;18882;50.952;4.366;2023-04-01T16:05:58;11.20;99.90
32428;DHT22;18882;50.952;4.366;2023-04-01T16:22:25;11.20;99.90
32428;DHT22;18882;50.952;4.366;2023-04-01T16:27:36;11.10;99.90
32428;DHT22;18882;50.952;4.366;2023-04-01T16:30:42;11.00;99.90
32428;DHT22;18882;50.952;4.366;2023-04-01T16:33:22;10.90;99.90
32428;DHT22;18882;50.952;4.366;2023-04-01T16:36:03;10.90;99.90
32428;DHT22;18882;50.952;4.366;2023-04-01T16:38:43;10.90;99.90
32428;DHT22;18882;50.952;4.366;2023-04-01T16:41:19;10.90;99.90
32428;DHT22;18882;50.952;4.366;2023-04-01T16:43:53;10.80;99.90
32428;DHT22;18882;50.952;4.366;2023-04-01T16:51:52;10.80;99.90
32428;DHT22;18882;50.952;4.366;2023-04-01T16:54:36;10.70;99.90
32428;DHT22;18882;50.952;4.366;2023-04-01T16:57:17;10.70;99.90
32428;DHT22;18882;50.952;4.366;2023-04-01T17:02:16;10.60;99.90
32428;DHT22;18882;50.952;4.366;2023-04-01T17:04:57;10.60;99.90
32428;DHT22;18882;50.952;4.366;2023-04-01T17:10:51;10.70;99.90
32428;DHT22;18882;50.952;4.366;2023-04-01T17:21:31;10.60;99.90
32428;DHT22;18882;50.952;4.366;2023-04-01T17:29:31;10.70;99.90
32428;DHT22;18882;50.952;4.366;2023-04-01T17:32:17;10.70;99.90
32428;DHT22;18882;50.952;4.366;2023-04-01T17:45:56;10.50;99.90
32428;DHT22;18882;50.952;4.366;2023-04-01T17:48:43;10.60;99.90
32428;DHT22;18882;50.952;4.366;2023-04-01T17:54:39;10.50;99.90
32428;DHT22;18882;50.952;4.366;2023-04-01T18:00:33;10.50;99.90
32428;DHT22;18882;50.952;4.366;2023-04-01T18:08:09;10.50;99.90
32428;DHT22;18882;50.952;4.366;2023-04-01T18:11:00;10.50;99.90
32428;DHT22;18882;50.952;4.366;2023-04-01T18:13:37;10.50;99.90
32428;DHT22;18882;50.952;4.366;2023-04-01T18:19:13;10.50;99.90
32428;DHT22;18882;50.952;4.366;2023-04-01T18:21:50;10.50;99.90
32428;DHT22;18882;50.952;4.366;2023-04-01T18:24:44;10.50;99.90
32428;DHT22;18882;50.952;4.366;2023-04-01T18:27:31;10.60;99.90
32428;DHT22;18882;50.952;4.366;2023-04-01T18:30:15;10.60;99.90
32428;DHT22;18882;50.952;4.366;2023-04-01T18:33:02;10.60;99.90
32428;DHT22;18882;50.952;4.366;2023-04-01T18:35:57;10.60;99.90
32428;DHT22;18882;50.952;4.366;2023-04-01T18:38:39;10.60;99.90
32428;DHT22;18882;50.952;4.366;2023-04-01T18:44:51;10.60;99.90
32428;DHT22;18882;50.952;4.366;2023-04-01T18:53:17;10.20;99.90
32428;DHT22;18882;50.952;4.366;2023-04-01T18:56:08;10.10;99.90
32428;DHT22;18882;50.952;4.366;2023-04-01T18:58:53;10.20;99.90
32428;DHT22;18882;50.952;4.366;2023-04-01T19:07:42;10.10;99.90
32428;DHT22;18882;50.952;4.366;2023-04-01T19:16:43;10.20;99.90
32428;DHT22;18882;50.952;4.366;2023-04-01T19:25:31;10.20;99.90
32428;DHT22;18882;50.952;4.366;2023-04-01T19:30:45;10.20;99.90
32428;DHT22;18882;50.952;4.366;2023-04-01T19:36:42;10.10;99.90
32428;DHT22;18882;50.952;4.366;2023-04-01T19:42:35;10.20;99.90
32428;DHT22;18882;50.952;4.366;2023-04-01T19:45:20;10.20;99.90
32428;DHT22;18882;50.952;4.366;2023-04-01T19:51:04;10.10;99.90
32428;DHT22;18882;50.952;4.366;2023-04-01T19:56:41;10.10;99.90
32428;DHT22;18882;50.952;4.366;2023-04-01T20:02:30;10.20;99.90
32428;DHT22;18882;50.952;4.366;2023-04-01T20:05:00;10.20;99.90
32428;DHT22;18882;50.952;4.366;2023-04-01T20:07:50;10.20;99.90
32428;DHT22;18882;50.952;4.366;2023-04-01T20:16:09;10.10;99.90
32428;DHT22;18882;50.952;4.366;2023-04-01T20:18:56;10.10;99.90
32428;DHT22;18882;50.952;4.366;2023-04-01T20:21:35;10.20;99.90
32428;DHT22;18882;50.952;4.366;2023-04-01T20:26:44;10.30;99.90
32428;DHT22;18882;50.952;4.366;2023-04-01T20:29:34;10.30;99.90
32428;DHT22;18882;50.952;4.366;2023-04-01T20:32:38;10.40;99.90
32428;DHT22;18882;50.952;4.366;2023-04-01T20:35:19;10.30;99.90
32428;DHT22;18882;50.952;4.366;2023-04-01T20:43:35;10.20;99.90
32428;DHT22;18882;50.952;4.366;2023-04-01T20:46:23;10.20;99.90
32428;DHT22;18882;50.952;4.366;2023-04-01T20:51:32;10.30;99.90
32428;DHT22;18882;50.952;4.366;2023-04-01T20:57:35;10.40;99.90
32428;DHT22;18882;50.952;4.366;2023-04-01T21:00:17;10.40;99.90
32428;DHT22;18882;50.952;4.366;2023-04-01T21:03:18;10.40;99.90
32428;DHT22;18882;50.952;4.366;2023-04-01T21:06:16;10.40;99.90
32428;DHT22;18882;50.952;4.366;2023-04-01T21:17:51;10.30;99.90
32428;DHT22;18882;50.952;4.366;2023-04-01T21:23:31;9.70;99.90
32428;DHT22;18882;50.952;4.366;2023-04-01T21:37:33;9.60;99.90
32428;DHT22;18882;50.952;4.366;2023-04-01T21:42:55;9.60;99.90
32428;DHT22;18882;50.952;4.366;2023-04-01T21:54:05;9.60;99.90
32428;DHT22;18882;50.952;4.366;2023-04-01T22:05:39;9.40;99.90
32428;DHT22;18882;50.952;4.366;2023-04-01T22:16:58;9.30;99.90
32428;DHT22;18882;50.952;4.366;2023-04-01T22:22:15;9.10;99.90
32428;DHT22;18882;50.952;4.366;2023-04-01T22:27:42;9.10;99.90
32428;DHT22;18882;50.952;4.366;2023-04-01T22:32:46;9.10;99.90
32428;DHT22;18882;50.952;4.366;2023-04-01T22:35:16;9.10;99.90
32428;DHT22;18882;50.952;4.366;2023-04-01T22:40:45;9.20;99.90
32428;DHT22;18882;50.952;4.366;2023-04-01T22:43:19;9.20;99.90
32428;DHT22;18882;50.952;4.366;2023-04-01T22:48:59;9.10;99.90
32428;DHT22;18882;50.952;4.366;2023-04-01T22:51:43;9.00;99.90
32428;DHT22;18882;50.952;4.366;2023-04-01T22:54:29;9.00;99.90
32428;DHT22;18882;50.952;4.366;2023-04-01T22:57:13;9.00;99.90
32428;DHT22;18882;50.952;4.366;2023-04-01T22:59:58;9.00;99.90
32428;DHT22;18882;50.952;4.366;2023-04-01T23:02:31;9.00;99.90
32428;DHT22;18882;50.952;4.366;2023-04-01T23:05:00;8.90;99.90
32428;DHT22;18882;50.952;4.366;2023-04-01T23:10:30;8.80;99.90
32428;DHT22;18882;50.952;4.366;2023-04-01T23:12:59;8.70;99.90
32428;DHT22;18882;50.952;4.366;2023-04-01T23:15:28;8.70;99.90
32428;DHT22;18882;50.952;4.366;2023-04-01T23:23:30;8.70;99.90
32428;DHT22;18882;50.952;4.366;2023-04-01T23:26:23;8.70;99.90
32428;DHT22;18882;50.952;4.366;2023-04-01T23:28:54;8.70;99.90
32428;DHT22;18882;50.952;4.366;2023-04-01T23:31:27;8.70;99.90
32428;DHT22;18882;50.952;4.366;2023-04-01T23:36:47;8.70;99.90
32428;DHT22;18882;50.952;4.366;2023-04-01T23:39:31;8.60;99.90
32428;DHT22;18882;50.952;4.366;2023-04-01T23:42:06;8.60;99.90
32428;DHT22;18882;50.952;4.366;2023-04-01T23:44:33;8.60;99.90
32428;DHT22;18882;50.952;4.366;2023-04-01T23:47:01;8.60;99.90
32428;DHT22;18882;50.952;4.366;2023-04-01T23:49:33;8.50;99.90
32428;DHT22;18882;50.952;4.366;2023-04-01T23:52:04;8.40;99.90
32428;DHT22;18882;50.952;4.366;2023-04-01T23:54:42;8.40;99.90
32428;DHT22;18882;50.952;4.366;2023-04-01T23:57:15;8.30;99.90
32428;DHT22;18882;50.952;4.366;2023-04-01T23:59:42;8.40;99.90
